首页
METAR-TAF:

METAR-TAF

机场 :

迪拜国际机场

杜拜, 阿拉伯联合酋长国

纬度: 25-15-10N, 经度: 055-21-52E, 海拔: 8米

当前天气观测

该预报发布于24分钟前的10:00 UTC
风速7节,风向西,在西转西南西北之间变化
温度 28°C
湿度 30%
气压 1014 hPa
能见度10公里或以上
1500米以下无云,无积雨云

METAR: OMDB 151000Z 28007KT 250V310 CAVOK 28/09 Q1014 NOSIG

时间: 14:24 (10:24 UTC)

预报

该预报发布于5小时和29分钟前的04:55 UTC
预报有效从15日的 06点(UTC)到 16日的 12点(UTC)
风速5节,风向南转南东
能見度: 8000
少量云层高于4000英尺
成为
从 15日的 08点(UTC)到 15日的 10点(UTC)
风速10节,风向北转西北
成为
从 15日的 16点(UTC)到 15日的 18点(UTC)
风速5节,风向东转东南
成为
从 16日的 09点(UTC)到 16日的 11点(UTC)
风速12节,风向北转西北

TAF: OMDB 150455Z 1506/1612 15005KT 8000 FEW040 BECMG 1508/1510 34010KT BECMG 1516/1518 12005KT BECMG 1609/1611 34012KT

超过4000个机场的气象观测和天气预报(METAR&TAF报告)。

可查询的气象台以黄色和红色小点在地图上表示。

将鼠标移到小点上方,可查看气象台名称。

然后点击查看天气观测和预报。

如需切换地图:点击带黑十字的绿色按钮放大地图;点击带横线的绿色按钮缩小地图;或者点击绿色箭头查看邻近地区的地图。


METAR-TAF: